Norris Rancho Marino Reserve, California Weather observations

Data are for 10 minute period ending at time listed.
 Day   Time   Solar   Ave.   Ave.  Ave.  Vector  Max.   Baro.   Total    
  of    of     Rad.   Air    Rel.  Wind   Wind   Wind  Press.  Precip.   
Year   Day            Temp.  Hum.  Speed  Dir.   Gust                    
2015   (PST)  Kw/m2    F      %     mph   deg.    mph    mb.     in.     
-------------------------------------------------------------------------
  23   20:00   0.00   59.7    47    8.8    67    13.0   1019.3    0.00 
  23   20:10   0.00   58.8    49    8.8    65    14.2   1019.3    0.00 
  23   20:20   0.00   58.4    50    9.2    66    13.7   1019.5    0.00 
  23   20:30   0.00   57.6    52    8.5    67    14.0   1019.7    0.00 
  23   20:40   0.00   57.7    52    9.2    69    14.6   1019.6    0.00 
  23   20:50   0.00   58.0    52   10.1    56    19.0   1019.5    0.00 
  23   21:00   0.00   59.1    49   13.9    52    17.7   1019.4    0.00 
  23   21:10   0.00   59.0    49   12.7    54    17.0   1019.5    0.00 
  23   21:20   0.00   59.1    49   11.2    52    16.5   1019.6    0.00 
  23   21:30   0.00   59.5    48   11.4    50    16.3   1019.6    0.00 
  23   21:40   0.00   60.1    47   11.2    51    16.1   1019.7    0.00 
  23   21:50   0.00   60.0    46    9.6    50    14.2   1019.9    0.00 
  23   22:00   0.00   59.2    47   10.7    56    16.1   1019.9    0.00 
  23   22:10   0.00   58.8    47   10.5    55    16.0   1019.9    0.00 
  23   22:20   0.00   59.4    44    9.2    47    14.3   1020.0    0.00 
  23   22:30   0.00   58.6    46    6.7    43    14.1   1020.0    0.00 
  23   22:40   0.00   59.2    44    9.3    51    14.7   1019.9    0.00 
  23   22:50   0.00   59.9    42   10.7    56    17.9   1019.9    0.00 
  23   23:00   0.00   60.5    40   11.2    53    15.9   1019.9    0.00 
  23   23:10   0.00   60.6    40   10.5    56    15.6   1019.7    0.00 
  23   23:20   0.00   60.4    39    9.5    54    13.9   1019.6    0.00 
  23   23:30   0.00   61.5    38    6.5    43    16.1   1019.4    0.00 
  23   23:40   0.00   60.9    39    2.9    50     8.2   1019.3    0.00 
  23   23:50   0.00   58.8    43    2.6    33     8.4   1019.3    0.00 
  24    0:00   0.00   57.2    48    1.7   306     3.4   1019.2    0.00 
  24    0:10   0.00   55.8    51    2.0   121     4.0   1019.2    0.00 
  24    0:20   0.00   55.7    51    1.3    41     4.3   1018.9    0.00 
  24    0:30   0.00   54.9    52    3.5    18     6.0   1018.6    0.00 
  24    0:40   0.00   56.8    47    4.0    22     6.9   1018.5    0.00 
  24    0:50   0.00   56.2    50    2.6    94     5.1   1018.5    0.00 
  24    1:00   0.00   54.3    54    2.7   336     4.3   1018.6    0.00 
  24    1:10   0.00   54.6    62    2.4    22     4.9   1018.9    0.00 
  24    1:20   0.00   54.7    59    3.3    53     6.1   1018.7    0.00 
  24    1:30   0.00   54.6    61    3.2    13     4.5   1018.6    0.00 
  24    1:40   0.00   53.7    63    4.1    36     5.7   1018.4    0.00 
  24    1:50   0.00   53.8    59    2.0    40     3.6   1018.1    0.00 
  24    2:00   0.00   54.8    54    1.8    33     4.1   1018.0    0.00 
  24    2:10   0.00   56.0    49    3.1    37     9.4   1017.7    0.00 
  24    2:20   0.00   60.1    42    5.7    51    10.7   1017.7    0.00 
  24    2:30   0.00   59.5    43    4.7    68     9.6   1017.7    0.00 
  24    2:40   0.00   58.8    50    3.1   167     6.4   1017.9    0.00 
  24    2:50   0.00   57.8    48    2.7    92     6.2   1018.0    0.00 
  24    3:00   0.00   57.5    48    2.3    32     5.4   1017.8    0.00 
  24    3:10   0.00   58.0    48    1.4   195     4.2   1017.9    0.00 
  24    3:20   0.00   56.9    49    1.2    47     3.5   1018.0    0.00 
  24    3:30   0.00   56.8    50    1.6    43     5.0   1018.0    0.00 
  24    3:40   0.00   55.3    51    2.8    55     4.2   1017.9    0.00 
  24    3:50   0.00   54.4    52    2.8    69     4.4   1017.7    0.00 
  24    4:00   0.00   55.1    50    2.6    92     4.1   1017.5    0.00 
  24    4:10   0.00   55.3    50    2.7    88     4.2   1017.4    0.00 
  24    4:20   0.00   56.1    50    2.5    99     4.5   1017.3    0.00 
  24    4:30   0.00   54.9    52    2.4    41     4.8   1017.2    0.00 
  24    4:40   0.00   54.4    53    3.9    62     7.0   1017.0    0.00 
  24    4:50   0.00   55.3    51    1.4    93     4.4   1016.8    0.00 
  24    5:00   0.00   55.1    51    1.8    73     5.6   1016.6    0.00 
  24    5:10   0.00   54.7    52    3.4    29     8.6   1016.5    0.00 
  24    5:20   0.00   54.7    52    3.1    45     8.5   1016.4    0.00 
  24    5:30   0.00   56.8    46    8.1    56    13.8   1016.2    0.00 
  24    5:40   0.00   59.9    38   10.8    60    15.9   1016.2    0.00 
  24    5:50   0.00   60.2    37   10.0    65    16.9   1016.3    0.00 
  24    6:00   0.00   61.3    34   11.8    58    16.3   1016.4    0.00 
  24    6:10   0.00   61.0    34   10.1    56    15.0   1016.6    0.00 
  24    6:20   0.00   60.5    35   11.4    59    16.1   1016.6    0.00 
  24    6:30   0.00   61.6    32   11.1    62    18.3   1016.5    0.00 
  24    6:40   0.00   62.2    31   10.6    59    17.3   1016.7    0.00 
  24    6:50   0.00   62.1    34    6.1    32    13.1   1017.0    0.00 
  24    7:00   0.00   57.8    43    3.6   300     9.9   1017.3    0.00 
  24    7:10   0.00   55.9    49    1.9    48     4.2   1017.3    0.00 
  24    7:20   0.01   54.6    46    2.1   322     4.5   1017.3    0.00 
  24    7:30   0.01   54.2    46    2.3    63     6.0   1017.2    0.00 
  24    7:40   0.01   53.9    47    2.5    39     5.2   1017.2    0.00 
  24    7:50   0.02   54.0    47    1.5   345     4.6   1017.4    0.00 
  24    8:00   0.05   54.5    49    3.6   336     4.9   1017.4    0.00 
  24    8:10   0.12   55.0    52    3.7   338     5.1   1017.5    0.00 
  24    8:20   0.15   55.2    55    3.8   325     5.0   1017.8    0.00 
  24    8:30   0.18   56.4    61    3.1   345     4.4   1018.1    0.00 
  24    8:40   0.21   57.0    66    2.1   356     4.1   1018.1    0.00 
  24    8:50   0.24   57.3    65    1.9   360     3.7   1018.2    0.00 
  24    9:00   0.27   58.0    64    0.4   257     1.8   1018.3    0.00 
  24    9:10   0.29   60.3    68    2.5   298     4.2   1018.2    0.00 
  24    9:20   0.32   61.0    71    3.1   306     5.5   1018.0    0.00 
  24    9:30   0.35   62.3    67    4.1   305     6.4   1017.8    0.00 
  24    9:40   0.38   61.6    71    5.0   290     7.2   1017.6    0.00 
  24    9:50   0.40   61.4    72    3.5   285     5.1   1017.4    0.00 
  24   10:00   0.43   62.0    68    2.9   284     5.3   1017.2    0.00 
  24   10:10   0.45   65.1    48    2.5    85     9.6   1017.1    0.00 
  24   10:20   0.48   69.6    31    4.8    70    12.1   1017.0    0.00 
  24   10:30   0.50   71.1    24    5.6    85    13.3   1016.9    0.00 
  24   10:40   0.52   72.1    22    6.1    76    11.8   1016.8    0.00 
  24   10:50   0.54   72.7    21    6.6    81    12.4   1016.8    0.00 
  24   11:00   0.55   73.1    21    5.4   100    11.5   1016.9    0.00 
  24   11:10   0.56   70.8    35    3.7   151    11.1   1016.7    0.00 
  24   11:20   0.57   67.7    47    3.5   268     7.8   1016.7    0.00 
  24   11:30   0.58   67.4    54    4.2   285     6.9   1016.6    0.00 
  24   11:40   0.59   67.6    50    4.3   271     6.9   1016.5    0.00 
  24   11:50   0.60   68.5    47    1.4   244     4.2   1016.4    0.00 
  24   12:00   0.61   69.2    44    1.8   207     3.3   1016.2    0.00 
  24   12:10   0.61   69.0    43    3.2   256     5.1   1016.2    0.00 
  24   12:20   0.61   68.1    44    2.5   294     4.5   1016.0    0.00 
  24   12:30   0.61   72.0    34    3.1    75     9.9   1015.5    0.00 
  24   12:40   0.61   75.4    23    6.6    71    10.6   1015.3    0.00 
  24   12:50   0.61   75.7    23    6.3    83    11.0   1015.2    0.00 
  24   13:00   0.61   75.8    22    6.1    88     9.1   1015.1    0.00 
  24   13:10   0.60   73.2    36    6.7   330    11.2   1014.9    0.00 
  24   13:20   0.58   65.6    61    9.4   297    13.4   1014.8    0.00 
  24   13:30   0.57   66.1    65    6.4   295     8.3   1014.4    0.00 
  24   13:40   0.56   66.1    64    7.3   276     9.3   1014.3    0.00 
  24   13:50   0.55   63.7    75    4.6   283     6.9   1014.3    0.00 
  24   14:00   0.53   63.5    71    4.4   283     6.1   1014.4    0.00 
  24   14:10   0.52   63.9    70    5.1   294     6.5   1014.3    0.00 
  24   14:20   0.50   65.3    67    4.9   294     6.2   1014.2    0.00 
  24   14:30   0.48   65.4    62    6.2   290     8.7   1014.1    0.00 
  24   14:40   0.46   64.4    67    6.5   294     8.9   1014.1    0.00 
  24   14:50   0.44   64.1    70    7.7   290    12.8   1014.1    0.00 
  24   15:00   0.41   64.0    70    9.3   296    12.5   1014.1    0.00 
  24   15:10   0.39   64.4    71    6.7   289     8.3   1014.1    0.00 
  24   15:20   0.35   64.1    72    4.7   276     8.1   1014.1    0.00 
  24   15:30   0.33   63.8    73    2.5   290     4.7   1014.0    0.00 
  24   15:40   0.31   64.5    73    1.7   267     3.0   1013.8    0.00 
  24   15:50   0.28   64.1    72    1.8   265     3.2   1013.7    0.00 
  24   16:00   0.25   64.1    73    2.8   279     6.7   1013.7    0.00 
  24   16:10   0.22   62.8    73    6.7   291     8.2   1013.8    0.00 
  24   16:20   0.19   62.5    73    7.4   289     9.6   1013.8    0.00 
  24   16:30   0.16   62.0    74    6.0   292     8.0   1013.8    0.00 
  24   16:40   0.13   62.2    75    4.4   297     5.6   1013.9    0.00 
  24   16:50   0.10   62.1    75    4.9   307     5.8   1013.9    0.00 
  24   17:00   0.08   61.6    75    5.4   314     6.9   1013.8    0.00 
  24   17:10   0.05   62.9    66    3.1     6     5.4   1013.8    0.00 
  24   17:20   0.02   70.6    31    3.9    14     6.6   1013.9    0.00 
  24   17:30   0.01   71.2    27    5.5    20     9.3   1014.0    0.00 
  24   17:40   0.00   69.2    29    5.7    34     9.1   1014.2    0.00 
  24   17:50   0.00   68.3    30    6.2    38     9.9   1014.2    0.00 
  24   18:00   0.00   69.0    28    7.4    30    10.3   1014.2    0.00 
  24   18:10   0.00   68.8    27    7.0    22    10.3   1014.2    0.00 
  24   18:20   0.00   66.3    31    5.3    32     9.9   1014.3    0.00 
  24   18:30   0.00   62.7    38    4.6    47     6.4   1014.4    0.00 
  24   18:40   0.00   62.9    35    5.3    65     6.6   1014.4    0.00 
  24   18:50   0.00   63.5    34    3.4    78     4.6   1014.4    0.00 
  24   19:00   0.00   63.7    32    3.7    73     5.8   1014.5    0.00 
  24   19:10   0.00   64.8    30    5.4    63     8.4   1014.5    0.00 
  24   19:20   0.00   63.0    34    5.1    39     7.8   1014.4    0.00 
  24   19:30   0.00   62.6    35    5.9    42     8.8   1014.3    0.00 
  24   19:40   0.00   62.6    33    7.2    44    10.2   1014.2    0.00 
  24   19:50   0.00   64.8    28    6.5    30     9.4   1014.2    0.00 

Return to Norris Rancho Marino Reserve graphs page.


Western Regional Climate Center,wrcc@dri.edu